createdAt,value
2018-12-06T00:02:16.509Z,102345.41
2018-12-06T00:04:44.898Z,102344.23
2018-12-06T00:07:13.263Z,102341.99
2018-12-06T00:09:41.630Z,102343.73
2018-12-06T00:12:09.999Z,102345.56
2018-12-06T00:14:38.380Z,102343.73
2018-12-06T00:17:06.767Z,102347.61
2018-12-06T00:19:35.145Z,102347.81
2018-12-06T00:22:03.524Z,102346.73
2018-12-06T00:24:31.901Z,102343.30
2018-12-06T00:27:00.295Z,102342.42
2018-12-06T00:29:28.674Z,102341.70
2018-12-06T00:31:57.059Z,102335.83
2018-12-06T00:34:25.431Z,102335.66
2018-12-06T00:36:53.799Z,102334.09
2018-12-06T00:39:22.181Z,102331.04
2018-12-06T00:41:50.579Z,102331.03
2018-12-06T00:44:18.952Z,102331.48
2018-12-06T00:46:47.314Z,102330.17
2018-12-06T00:49:15.691Z,102326.60
2018-12-06T00:51:44.081Z,102330.38
2018-12-06T00:54:12.468Z,102327.17
2018-12-06T00:56:40.848Z,102329.44
2018-12-06T00:59:09.211Z,102329.95
2018-12-06T01:01:37.584Z,102333.67
2018-12-06T01:04:05.946Z,102336.55
2018-12-06T01:06:34.317Z,102337.98
2018-12-06T01:09:02.680Z,102336.18
2018-12-06T01:11:31.056Z,102332.53
2018-12-06T01:13:59.426Z,102334.58
2018-12-06T01:16:27.807Z,102331.37
2018-12-06T01:18:56.167Z,102332.67
2018-12-06T01:21:24.546Z,102331.55
2018-12-06T01:23:52.909Z,102334.93
2018-12-06T01:26:21.281Z,102333.20
2018-12-06T01:28:49.654Z,102336.98
2018-12-06T01:31:18.032Z,102341.47
2018-12-06T01:33:46.407Z,102338.05
2018-12-06T01:36:14.790Z,102338.28
2018-12-06T01:38:43.168Z,102331.95
2018-12-06T01:41:11.760Z,102331.13
2018-12-06T01:43:39.927Z,102335.47
2018-12-06T01:46:08.304Z,102333.80
2018-12-06T01:48:36.679Z,102339.61
2018-12-06T01:51:05.049Z,102333.14
2018-12-06T01:53:33.438Z,102328.16
2018-12-06T01:56:01.814Z,102322.06
2018-12-06T01:58:30.186Z,102320.36
2018-12-06T02:00:58.561Z,102312.05
2018-12-06T02:03:26.929Z,102313.81
2018-12-06T02:05:55.309Z,102303.19
2018-12-06T02:08:23.680Z,102304.37
2018-12-06T02:10:52.056Z,102297.09
2018-12-06T02:13:20.434Z,102299.17
2018-12-06T02:15:48.811Z,102296.27
2018-12-06T02:18:17.191Z,102294.63
2018-12-06T02:20:45.564Z,102291.75
2018-12-06T02:23:13.942Z,102281.64
2018-12-06T02:25:42.317Z,102280.42
2018-12-06T02:28:10.701Z,102279.09
2018-12-06T02:30:39.076Z,102287.67
2018-12-06T02:33:07.545Z,102290.32
2018-12-06T02:35:35.938Z,102282.05
2018-12-06T02:38:04.310Z,102276.94
2018-12-06T02:40:32.688Z,102275.88
2018-12-06T02:43:01.042Z,102265.17
2018-12-06T02:45:29.446Z,102268.11
2018-12-06T02:47:57.821Z,102266.51
2018-12-06T02:50:26.208Z,102261.70
2018-12-06T02:52:54.845Z,102257.34
2018-12-06T02:55:23.224Z,102253.12
2018-12-06T02:57:51.602Z,102254.21
2018-12-06T03:00:20.193Z,102252.03
2018-12-06T03:02:48.336Z,102252.91
2018-12-06T03:05:16.718Z,102253.39
2018-12-06T03:07:45.126Z,102252.91
2018-12-06T03:10:13.495Z,102256.19
2018-12-06T03:12:41.874Z,102264.17
2018-12-06T03:15:10.273Z,102267.13
2018-12-06T03:17:38.640Z,102263.87
2018-12-06T03:20:07.146Z,102264.19
2018-12-06T03:22:35.523Z,102258.39
2018-12-06T03:25:03.913Z,102251.05
2018-12-06T03:27:32.283Z,102255.67
2018-12-06T03:30:00.660Z,102252.45
2018-12-06T03:32:29.052Z,102250.11
2018-12-06T03:34:57.440Z,102245.91
2018-12-06T03:37:25.801Z,102245.39
2018-12-06T03:39:54.176Z,102240.22
2018-12-06T03:42:22.601Z,102237.09
2018-12-06T03:44:50.984Z,102234.06
2018-12-06T03:47:19.384Z,102228.27
2018-12-06T03:49:47.755Z,102232.18
2018-12-06T03:52:16.143Z,102231.19
2018-12-06T03:54:44.493Z,102231.92
2018-12-06T03:57:12.868Z,102226.61
2018-12-06T03:59:41.258Z,102228.33
2018-12-06T04:02:09.629Z,102226.03
2018-12-06T04:04:38.014Z,102216.02
2018-12-06T04:07:06.392Z,102212.00
2018-12-06T04:09:34.768Z,102205.98
2018-12-06T04:12:03.149Z,102203.86
2018-12-06T04:14:31.530Z,102213.34
2018-12-06T04:16:59.910Z,102215.06
2018-12-06T04:19:28.280Z,102211.26
2018-12-06T04:21:56.671Z,102201.97
2018-12-06T04:24:25.054Z,102200.52
2018-12-06T04:26:53.448Z,102193.42
2018-12-06T04:29:21.841Z,102185.58
2018-12-06T04:31:50.299Z,102179.13
2018-12-06T04:34:18.586Z,102178.05
2018-12-06T04:36:46.964Z,102176.91
2018-12-06T04:39:15.345Z,102179.17
2018-12-06T04:41:43.725Z,102180.64
2018-12-06T04:44:12.119Z,102180.31
2018-12-06T04:46:40.698Z,102184.58
2018-12-06T04:49:08.859Z,102184.36
2018-12-06T04:51:37.239Z,102180.21
2018-12-06T04:54:05.617Z,102173.90
2018-12-06T04:56:34.007Z,102171.26
2018-12-06T04:59:02.388Z,102173.70
2018-12-06T05:01:30.752Z,102177.56
2018-12-06T05:03:59.132Z,102175.97
2018-12-06T05:06:26.931Z,102178.20
2018-12-06T05:08:55.928Z,102172.28
2018-12-06T05:11:24.309Z,102175.94
2018-12-06T05:13:52.688Z,102168.36
2018-12-06T05:16:21.065Z,102175.98
2018-12-06T05:18:49.435Z,102176.31
2018-12-06T05:21:17.805Z,102177.84
2018-12-06T05:23:46.415Z,102183.05
2018-12-06T05:26:14.793Z,102183.86
2018-12-06T05:28:43.168Z,102182.31
2018-12-06T05:31:11.534Z,102181.67
2018-12-06T05:33:39.929Z,102181.07
2018-12-06T05:36:08.294Z,102174.77
2018-12-06T05:38:36.664Z,102170.55
2018-12-06T05:41:05.054Z,102168.85
2018-12-06T05:43:33.412Z,102162.08
2018-12-06T05:46:01.798Z,102161.59
2018-12-06T05:48:30.170Z,102160.87
2018-12-06T05:50:58.579Z,102158.59
2018-12-06T05:53:26.960Z,102154.00
2018-12-06T05:55:55.337Z,102151.22
2018-12-06T05:58:23.729Z,102152.48
2018-12-06T06:00:52.098Z,102152.25
2018-12-06T06:03:20.503Z,102146.66
2018-12-06T06:05:48.898Z,102142.95
2018-12-06T06:08:17.281Z,102139.34
2018-12-06T06:10:45.650Z,102144.20
2018-12-06T06:13:14.022Z,102142.75
2018-12-06T06:15:42.395Z,102144.66
2018-12-06T06:18:10.771Z,102142.80
2018-12-06T06:20:39.140Z,102142.04
2018-12-06T06:23:07.525Z,102140.42
2018-12-06T06:25:35.907Z,102135.97
2018-12-06T06:28:04.315Z,102133.07
2018-12-06T06:30:32.694Z,102137.27
2018-12-06T06:33:01.097Z,102134.84
2018-12-06T06:35:30.241Z,102129.14
2018-12-06T06:37:58.629Z,102119.16
2018-12-06T06:40:27.040Z,102114.59
2018-12-06T06:42:55.394Z,102114.13
2018-12-06T06:45:23.779Z,102104.81
2018-12-06T06:47:52.204Z,102103.55
2018-12-06T06:50:20.511Z,102103.25
2018-12-06T06:52:50.345Z,102103.98
2018-12-06T06:55:17.295Z,102099.75
2018-12-06T06:57:45.662Z,102092.91
2018-12-06T07:00:14.034Z,102095.73
2018-12-06T07:02:42.403Z,102099.44
2018-12-06T07:05:11.103Z,102095.56
2018-12-06T07:07:39.544Z,102090.67
2018-12-06T07:10:07.833Z,102084.89
2018-12-06T07:12:36.231Z,102086.42
2018-12-06T07:15:04.947Z,102088.80
2018-12-06T07:17:33.304Z,102082.53
2018-12-06T07:20:01.691Z,102079.69
2018-12-06T07:22:30.040Z,102078.28
2018-12-06T07:24:58.389Z,102076.98
2018-12-06T07:27:26.728Z,102064.29
2018-12-06T07:29:55.057Z,102067.42
2018-12-06T07:32:23.398Z,102054.53
2018-12-06T07:34:51.758Z,102052.59
2018-12-06T07:37:20.108Z,102044.78
2018-12-06T07:39:48.430Z,102041.05
2018-12-06T07:42:17.748Z,102046.22
2018-12-06T07:44:46.076Z,102046.34
2018-12-06T07:47:14.403Z,102037.04
2018-12-06T07:49:42.733Z,102038.40
2018-12-06T07:52:11.071Z,102042.73
2018-12-06T07:54:39.655Z,102044.77
2018-12-06T07:57:07.792Z,102044.73
2018-12-06T07:59:36.118Z,102043.58
2018-12-06T08:02:04.452Z,102052.30
2018-12-06T08:04:33.132Z,102041.74
2018-12-06T08:07:01.455Z,102045.72
2018-12-06T08:09:29.800Z,102047.20
2018-12-06T08:11:58.147Z,102039.33
2018-12-06T08:44:21.297Z,102004.05
2018-12-06T08:46:46.816Z,102006.04
2018-12-06T08:49:15.160Z,102006.10
2018-12-06T08:51:43.613Z,102011.28
2018-12-06T08:54:12.022Z,102013.71
2018-12-06T08:56:40.370Z,102014.69
2018-12-06T08:59:08.694Z,102014.46
2018-12-06T09:01:37.021Z,102012.13
2018-12-06T09:04:05.418Z,102012.03
2018-12-06T09:06:33.817Z,102019.16
2018-12-06T09:09:02.244Z,102014.05
2018-12-06T09:11:30.617Z,102010.77
2018-12-06T09:13:58.988Z,102012.83
2018-12-06T09:16:27.500Z,102012.78
2018-12-06T09:18:56.522Z,102013.47
2018-12-06T09:21:24.851Z,102018.06
2018-12-06T09:23:53.908Z,102022.08
2018-12-06T09:26:22.507Z,102013.88
2018-12-06T09:28:50.874Z,102015.04
2018-12-06T09:31:19.197Z,102003.72
2018-12-06T09:33:59.218Z,101989.16
2018-12-06T09:36:27.655Z,101988.66
2018-12-06T09:38:55.978Z,101978.17
2018-12-06T09:41:24.320Z,101979.54
2018-12-06T09:43:52.697Z,101987.28
2018-12-06T09:46:21.117Z,101989.28
2018-12-06T09:48:49.550Z,101990.12
2018-12-06T09:51:17.951Z,101991.59
2018-12-06T09:53:46.297Z,101996.89
2018-12-06T09:56:14.714Z,101988.59
2018-12-06T09:58:43.069Z,101990.13
2018-12-06T10:01:11.457Z,101990.16
2018-12-06T10:03:40.038Z,101987.50
2018-12-06T10:06:08.163Z,101980.50
2018-12-06T10:08:36.509Z,101981.06
2018-12-06T10:11:04.836Z,101979.77
2018-12-06T10:13:33.166Z,101978.64
2018-12-06T10:16:01.482Z,101984.55
2018-12-06T10:18:29.829Z,101980.41
2018-12-06T10:20:58.145Z,101985.92
2018-12-06T10:23:26.532Z,101982.52
2018-12-06T10:25:56.714Z,101972.50
2018-12-06T10:28:25.414Z,101965.02
2018-12-06T10:30:53.846Z,101976.56
2018-12-06T10:33:22.329Z,101960.88
2018-12-06T10:35:50.652Z,101958.59
2018-12-06T10:38:18.992Z,101950.14
2018-12-06T10:40:47.334Z,101945.44
2018-12-06T10:43:15.690Z,101954.11
2018-12-06T10:45:44.414Z,101948.28
2018-12-06T10:48:12.667Z,101950.75
2018-12-06T10:50:41.455Z,101947.28
2018-12-06T10:53:09.800Z,101948.44
2018-12-06T10:55:38.137Z,101939.31
2018-12-06T10:58:06.468Z,101933.04
2018-12-06T11:00:40.567Z,101933.06
2018-12-06T11:03:12.565Z,101936.81
2018-12-06T11:05:40.910Z,101935.03
2018-12-06T11:08:09.272Z,101939.31
2018-12-06T11:10:37.685Z,101934.53
2018-12-06T11:13:06.035Z,101925.81
2018-12-06T11:15:34.978Z,101925.05
2018-12-06T11:18:03.354Z,101912.19
2018-12-06T11:20:31.705Z,101907.81
2018-12-06T11:23:00.028Z,101901.56
2018-12-06T11:25:28.442Z,101904.02
2018-12-06T11:27:56.994Z,101897.45
2018-12-06T11:30:25.520Z,101899.98
2018-12-06T11:32:54.114Z,101891.53
2018-12-06T11:35:22.503Z,101890.95
2018-12-06T11:37:51.143Z,101883.12
2018-12-06T11:40:19.492Z,101874.59
2018-12-06T11:42:48.029Z,101869.44
2018-12-06T11:45:16.383Z,101876.51
2018-12-06T11:47:44.853Z,101868.19
2018-12-06T11:50:13.182Z,101863.62
2018-12-06T11:52:41.587Z,101852.11
2018-12-06T11:55:10.586Z,101855.29
2018-12-06T11:57:39.725Z,101857.41
2018-12-06T12:00:08.180Z,101849.02
2018-12-06T12:02:38.205Z,101848.70
2018-12-06T12:05:06.536Z,101846.97
2018-12-06T12:07:34.941Z,101833.37
2018-12-06T12:10:03.273Z,101835.78
2018-12-06T12:12:32.017Z,101827.38
2018-12-06T12:15:01.008Z,101823.47
2018-12-06T12:17:29.554Z,101821.00
2018-12-06T12:19:57.707Z,101812.70
2018-12-06T12:22:26.041Z,101808.23
2018-12-06T12:24:54.392Z,101804.59
2018-12-06T12:27:22.843Z,101794.62
2018-12-06T12:29:51.356Z,101782.33
2018-12-06T12:32:19.720Z,101779.65
2018-12-06T12:34:48.141Z,101781.09
2018-12-06T12:37:16.472Z,101778.86
2018-12-06T12:39:44.840Z,101764.23
2018-12-06T12:42:13.169Z,101762.05
2018-12-06T12:44:41.503Z,101752.21
2018-12-06T12:47:09.851Z,101749.16
2018-12-06T12:49:38.426Z,101735.46
2018-12-06T12:52:06.543Z,101741.47
2018-12-06T12:54:35.090Z,101738.94
2018-12-06T12:57:03.527Z,101730.53
2018-12-06T12:59:31.873Z,101725.91
2018-12-06T13:02:00.419Z,101723.47
2018-12-06T13:04:28.903Z,101721.22
2018-12-06T13:06:57.222Z,101720.32
2018-12-06T13:09:25.562Z,101717.13
2018-12-06T13:11:54.146Z,101719.94
2018-12-06T13:14:22.250Z,101725.50
2018-12-06T13:16:50.603Z,101718.06
2018-12-06T13:19:19.363Z,101723.53
2018-12-06T13:21:47.703Z,101734.71
2018-12-06T13:24:16.059Z,101727.20
2018-12-06T13:26:44.416Z,101723.73
2018-12-06T13:29:12.745Z,101715.91
2018-12-06T13:31:41.084Z,101717.52
2018-12-06T13:34:09.435Z,101709.15
2018-12-06T13:36:37.769Z,101705.30
2018-12-06T13:39:06.123Z,101700.63
2018-12-06T13:41:34.494Z,101691.84
2018-12-06T13:44:02.813Z,101682.37
2018-12-06T13:46:31.240Z,101689.19
2018-12-06T13:48:59.580Z,101680.40
2018-12-06T13:51:28.142Z,101683.42
2018-12-06T13:53:56.258Z,101675.58
2018-12-06T13:56:24.775Z,101677.86
2018-12-06T13:58:53.103Z,101675.29
2018-12-06T14:01:21.657Z,101673.61
2018-12-06T14:03:49.869Z,101674.95
2018-12-06T14:06:18.156Z,101661.08
2018-12-06T14:08:46.500Z,101663.05
2018-12-06T14:11:14.835Z,101653.08
2018-12-06T14:13:43.177Z,101652.41
2018-12-06T14:16:11.576Z,101652.19
2018-12-06T14:18:39.866Z,101645.40
2018-12-06T14:21:08.646Z,101633.09
2018-12-06T14:23:36.548Z,101632.60
2018-12-06T14:26:04.922Z,101624.34
2018-12-06T14:28:35.184Z,101624.77
2018-12-06T14:31:04.464Z,101623.84
2018-12-06T14:33:32.916Z,101624.14
2018-12-06T14:36:02.170Z,101613.88
2018-12-06T14:38:30.528Z,101609.81
2018-12-06T14:40:58.866Z,101611.81
2018-12-06T14:43:27.200Z,101601.77
2018-12-06T14:45:55.541Z,101602.87
2018-12-06T14:48:23.871Z,101614.35
2018-12-06T14:50:52.233Z,101611.59
2018-12-06T14:53:20.538Z,101609.03
2018-12-06T14:55:48.881Z,101619.15
2018-12-06T14:58:17.465Z,101616.05
2018-12-06T15:00:45.627Z,101614.80
2018-12-06T15:03:13.963Z,101605.23
2018-12-06T15:05:42.308Z,101598.64
2018-12-06T15:08:10.693Z,101591.23
2018-12-06T15:10:39.925Z,101583.91
2018-12-06T15:13:08.251Z,101577.16
2018-12-06T15:15:36.583Z,101580.22
2018-12-06T15:18:06.055Z,101579.75
2018-12-06T15:20:34.157Z,101579.56
2018-12-06T15:23:02.496Z,101584.44
2018-12-06T15:25:30.847Z,101580.08
2018-12-06T15:27:59.192Z,101582.63
2018-12-06T15:30:27.770Z,101583.62
2018-12-06T15:32:55.882Z,101591.30
2018-12-06T15:35:24.212Z,101588.69
2018-12-06T15:37:52.554Z,101587.21
2018-12-06T15:40:20.891Z,101582.94
2018-12-06T15:42:49.239Z,101572.43
2018-12-06T15:45:17.852Z,101573.84
2018-12-06T15:47:45.982Z,101573.77
2018-12-06T15:50:14.317Z,101572.01
2018-12-06T15:52:42.662Z,101571.56
2018-12-06T15:55:10.997Z,101574.60
2018-12-06T15:57:39.321Z,101574.08
2018-12-06T16:00:07.673Z,101583.07
2018-12-06T16:02:36.005Z,101583.59
2018-12-06T16:05:04.359Z,101576.78
2018-12-06T16:07:32.694Z,101582.02
2018-12-06T16:10:01.745Z,101580.14
2018-12-06T16:12:30.091Z,101578.56
2018-12-06T16:14:58.491Z,101572.09
2018-12-06T16:17:26.759Z,101571.70
2018-12-06T16:19:55.112Z,101569.81
2018-12-06T16:22:23.471Z,101564.48
2018-12-06T16:24:51.821Z,101561.08
2018-12-06T16:27:20.150Z,101556.17
2018-12-06T16:29:51.479Z,101551.79
2018-12-06T16:32:16.839Z,101543.55
2018-12-06T16:34:45.881Z,101542.67
2018-12-06T16:37:14.231Z,101543.13
2018-12-06T16:39:42.586Z,101539.77
2018-12-06T16:42:11.298Z,101541.61
2018-12-06T16:44:39.656Z,101548.97
2018-12-06T16:47:08.033Z,101549.28
2018-12-06T16:49:36.376Z,101552.37
2018-12-06T16:52:04.947Z,101553.25
2018-12-06T16:54:33.306Z,101552.49
2018-12-06T16:57:01.883Z,101547.51
2018-12-06T16:59:30.223Z,101541.87
2018-12-06T17:01:58.559Z,101536.03
2018-12-06T17:04:26.908Z,101538.47
2018-12-06T17:06:55.256Z,101541.06
2018-12-06T17:09:23.639Z,101539.73
2018-12-06T17:11:52.004Z,101537.41
2018-12-06T17:14:20.334Z,101534.59
2018-12-06T17:16:48.726Z,101536.06
2018-12-06T17:19:17.091Z,101537.81
2018-12-06T17:21:45.448Z,101543.09
2018-12-06T17:24:13.786Z,101551.52
2018-12-06T17:26:42.204Z,101547.37
2018-12-06T17:29:10.531Z,101541.09
2018-12-06T17:31:38.868Z,101534.14
2018-12-06T17:34:07.239Z,101532.77
2018-12-06T17:36:35.586Z,101526.47
2018-12-06T17:39:03.937Z,101521.94
2018-12-06T17:41:32.273Z,101521.99
2018-12-06T17:44:00.651Z,101523.41
2018-12-06T17:46:28.987Z,101523.30
2018-12-06T17:48:57.340Z,101520.89
2018-12-06T17:51:26.243Z,101523.70
2018-12-06T17:53:54.818Z,101523.41
2018-12-06T17:56:23.159Z,101521.84
2018-12-06T17:58:51.751Z,101526.37
2018-12-06T18:01:20.213Z,101522.83
2018-12-06T18:03:48.403Z,101512.62
2018-12-06T18:06:16.780Z,101503.89
2018-12-06T18:08:46.161Z,101503.70
2018-12-06T18:11:14.293Z,101500.47
2018-12-06T18:13:42.771Z,101503.77
2018-12-06T18:16:11.087Z,101497.95
2018-12-06T18:18:40.510Z,101498.14
2018-12-06T18:21:07.742Z,101493.21
2018-12-06T18:23:36.137Z,101488.55
2018-12-06T18:26:04.471Z,101482.13
2018-12-06T18:28:32.838Z,101479.56
2018-12-06T18:31:01.185Z,101472.30
2018-12-06T18:33:29.517Z,101470.16
2018-12-06T18:35:57.859Z,101465.19
2018-12-06T18:38:26.214Z,101459.66
2018-12-06T18:40:54.685Z,101455.61
2018-12-06T18:43:23.049Z,101454.55
2018-12-06T18:45:51.392Z,101442.61
2018-12-06T18:48:19.745Z,101437.22
2018-12-06T18:50:48.072Z,101434.44
2018-12-06T18:53:17.211Z,101426.77
2018-12-06T18:55:45.586Z,101423.23
2018-12-06T18:58:13.930Z,101415.43
2018-12-06T19:00:42.331Z,101411.06
2018-12-06T19:03:11.017Z,101405.56
2018-12-06T19:05:39.186Z,101402.76
2018-12-06T19:08:08.883Z,101403.83
2018-12-06T19:10:35.868Z,101404.90
2018-12-06T19:13:04.203Z,101401.59
2018-12-06T19:15:32.827Z,101397.70
2018-12-06T19:18:00.961Z,101390.27
2018-12-06T19:20:29.327Z,101383.00
2018-12-06T19:22:58.312Z,101384.20
2018-12-06T19:25:26.648Z,101380.79
2018-12-06T19:27:55.029Z,101379.19
2018-12-06T19:30:23.477Z,101379.39
2018-12-06T19:32:57.718Z,101375.42
2018-12-06T19:35:21.444Z,101370.54
2018-12-06T19:37:48.760Z,101360.67
2018-12-06T19:40:17.119Z,101357.00
2018-12-06T19:42:45.617Z,101345.80
2018-12-06T19:45:14.240Z,101345.44
2018-12-06T19:47:43.314Z,101327.20
2018-12-06T19:50:11.911Z,101321.88
2018-12-06T19:52:40.015Z,101320.06
2018-12-06T19:55:08.540Z,101314.77
2018-12-06T19:57:36.910Z,101316.28
2018-12-06T20:00:05.540Z,101312.09
2018-12-06T20:02:33.655Z,101305.48
2018-12-06T20:05:01.999Z,101300.41
2018-12-06T20:07:31.592Z,101302.92
2018-12-06T20:10:01.001Z,101298.45
2018-12-06T20:12:30.658Z,101291.67
2018-12-06T20:14:58.988Z,101289.79
2018-12-06T20:17:27.808Z,101284.29
2018-12-06T20:19:57.654Z,101277.63
2018-12-06T20:22:26.726Z,101267.55
2018-12-06T20:24:55.072Z,101260.67
2018-12-06T20:27:23.842Z,101253.34
2018-12-06T20:29:52.315Z,101247.07
2018-12-06T20:32:20.654Z,101244.31
2018-12-06T20:34:49.031Z,101239.72
2018-12-06T20:37:17.503Z,101231.75
2018-12-06T20:39:46.003Z,101220.03
2018-12-06T20:42:14.581Z,101218.84
2018-12-06T20:44:43.110Z,101213.16
2018-12-06T20:47:11.238Z,101213.56
2018-12-06T20:49:39.616Z,101209.30
2018-12-06T20:52:07.941Z,101210.20
2018-12-06T20:54:36.578Z,101204.20
2018-12-06T20:57:04.790Z,101206.68
2018-12-06T20:59:34.429Z,101199.71
2018-12-06T21:02:02.764Z,101200.88
2018-12-06T21:04:31.102Z,101197.21
2018-12-06T21:06:59.515Z,101197.53
2018-12-06T21:09:27.860Z,101195.39
2018-12-06T21:11:56.217Z,101188.50
2018-12-06T21:14:24.566Z,101183.79
2018-12-06T21:16:53.140Z,101175.05
2018-12-06T21:19:21.269Z,101175.52
2018-12-06T21:21:49.642Z,101177.83
2018-12-06T21:24:17.951Z,101175.06
2018-12-06T21:26:46.304Z,101173.77
2018-12-06T21:29:15.620Z,101173.52
2018-12-06T21:31:43.000Z,101173.66
2018-12-06T21:34:11.342Z,101164.13
2018-12-06T21:36:39.665Z,101158.52
2018-12-06T21:39:08.005Z,101149.25
2018-12-06T21:41:36.421Z,101143.05
2018-12-06T21:44:04.715Z,101135.68
2018-12-06T21:46:33.059Z,101135.26
2018-12-06T21:49:01.400Z,101132.06
2018-12-06T21:51:29.949Z,101131.28
2018-12-06T21:53:58.306Z,101123.47
2018-12-06T21:56:26.669Z,101124.83
2018-12-06T21:58:55.069Z,101119.91
2018-12-06T22:01:23.789Z,101117.34
2018-12-06T22:03:52.232Z,101117.14
2018-12-06T22:06:20.564Z,101114.55
2018-12-06T22:08:48.907Z,101108.91
2018-12-06T22:11:17.532Z,101111.30
2018-12-06T22:13:46.111Z,101106.11
2018-12-06T22:16:14.522Z,101099.67
2018-12-06T22:18:42.976Z,101094.17
2018-12-06T22:21:11.725Z,101088.88
2018-12-06T22:23:40.063Z,101088.27
2018-12-06T22:26:09.356Z,101080.29
2018-12-06T22:28:36.836Z,101077.56
2018-12-06T22:31:05.199Z,101077.55
2018-12-06T22:33:33.606Z,101071.54
2018-12-06T22:36:02.819Z,101069.96
2018-12-06T22:38:34.113Z,101063.26
2018-12-06T22:40:58.658Z,101057.02
2018-12-06T22:43:27.003Z,101057.70
2018-12-06T22:45:55.371Z,101059.79
2018-12-06T22:48:23.751Z,101060.86
2018-12-06T22:50:52.156Z,101054.47
2018-12-06T22:53:20.912Z,101044.55
2018-12-06T22:55:50.033Z,101045.23
2018-12-06T22:58:18.383Z,101045.39
2018-12-06T23:00:46.722Z,101035.22
2018-12-06T23:03:15.979Z,101028.19
2018-12-06T23:05:45.441Z,101022.32
2018-12-06T23:08:13.847Z,101016.77
2018-12-06T23:10:42.324Z,101015.00
2018-12-06T23:13:13.534Z,101007.88
2018-12-06T23:15:43.018Z,100998.28
2018-12-06T23:18:11.096Z,100993.78
2018-12-06T23:20:41.463Z,100987.48
2018-12-06T23:23:10.880Z,100991.78
2018-12-06T23:25:39.208Z,100990.27
2018-12-06T23:28:09.170Z,100988.38
2018-12-06T23:30:40.096Z,100983.77
2018-12-06T23:33:08.680Z,100979.83
2018-12-06T23:35:39.590Z,100979.48
2018-12-06T23:38:06.984Z,100971.61
2018-12-06T23:40:36.587Z,100962.97
2018-12-06T23:43:05.672Z,100964.49
2018-12-06T23:45:34.695Z,100943.12
2018-12-06T23:48:03.369Z,100934.30
2018-12-06T23:50:33.039Z,100931.90
2018-12-06T23:53:01.235Z,100926.56
2018-12-06T23:55:29.610Z,100920.16
2018-12-06T23:57:58.185Z,100918.22
